sim
Sign-in with your pilot id or email,
or register
Callsign
Passwort

Schedule Details

Flight Number: OEO1783
Departure: Rome Leonardo da Vinci Fiumicino Airport (LIRF) at 07:40
Arrival: Bremen Airport (EDDW) at 10:00

Weather Information
Getting current METAR information for LIRF 111950Z VRB01KT CAVOK 24/21 Q1015 NOSIG
Getting current METAR information for EDDW 111950Z VRB01KT 9999 FEW024TCU 14/12 Q1025 NOSIG

Schedule Frequency

Route Map